Yushu, China
Current Conditions -  °F | °C
As of 6:00 PM on Friday 24 Oct 2014 (Local Time) from ZUUU Reporting Station
Haze Haze  
Wind Chill: 68°   Ceiling: Unl
Heat Index: 68°   Visibility: 1.8mi
Dew Point: 61°   Wind: 2mph
Humidity: 78%   Direction: 340°NNW
Pressure: 30"   Gusts: NA
Location:  33.02°N, 97.02°E
Report Text: ZUUU 241000Z 34001MPS 3000 BR FEW040 20/16 Q1016 NOSIG
Loading
Personal Weather Stations






























Interactive Weather Map
Tropical Storm Tracking
New forecast layout! Learn more

10-Day Weather Forecast

Advertisements
Track Severe Weather on mobile